createdAt,value
2019-01-08T00:01:42.102Z,100288.81
2019-01-08T00:04:10.079Z,100289.30
2019-01-08T00:06:38.041Z,100272.09
2019-01-08T00:09:06.007Z,100270.17
2019-01-08T00:11:33.980Z,100258.55
2019-01-08T00:14:01.950Z,100251.84
2019-01-08T00:16:29.585Z,100243.97
2019-01-08T00:18:58.419Z,100246.23
2019-01-08T00:21:26.474Z,100239.48
2019-01-08T00:23:54.446Z,100238.45
2019-01-08T00:26:22.072Z,100230.52
2019-01-08T00:28:49.699Z,100221.73
2019-01-08T00:31:17.651Z,100221.09
2019-01-08T00:33:45.602Z,100212.02
2019-01-08T00:36:13.241Z,100206.11
2019-01-08T00:38:41.145Z,100205.33
2019-01-08T00:41:08.778Z,100205.23
2019-01-08T00:43:36.657Z,100201.87
2019-01-08T00:46:04.635Z,100195.28
2019-01-08T00:48:32.335Z,100187.58
2019-01-08T00:51:00.260Z,100182.31
2019-01-08T00:53:28.232Z,100177.80
2019-01-08T00:55:55.868Z,100167.86
2019-01-08T00:58:23.758Z,100170.45
2019-01-08T01:00:51.730Z,100157.89
2019-01-08T01:03:19.354Z,100149.88
2019-01-08T01:05:47.263Z,100140.62
2019-01-08T01:08:14.897Z,100132.68
2019-01-08T01:10:42.795Z,100128.59
2019-01-08T01:13:10.761Z,100117.08
2019-01-08T01:15:38.735Z,100111.16
2019-01-08T01:18:06.697Z,100099.52
2019-01-08T01:20:34.670Z,100096.30
2019-01-08T01:23:02.662Z,100084.50
2019-01-08T01:25:30.612Z,100084.50
2019-01-08T01:27:58.582Z,100066.16
2019-01-08T01:30:26.546Z,100065.20
2019-01-08T01:32:54.512Z,100065.51
2019-01-08T01:35:22.145Z,100060.08
2019-01-08T01:37:50.048Z,100052.42
2019-01-08T01:40:18.018Z,100050.97
2019-01-08T01:42:46.008Z,100035.31
2019-01-08T01:45:13.645Z,100033.06
2019-01-08T01:47:41.279Z,100033.23
2019-01-08T01:50:09.182Z,100021.56
2019-01-08T01:52:36.826Z,100006.59
2019-01-08T01:55:04.706Z,100011.36
2019-01-08T01:57:32.677Z,100000.23
2019-01-08T02:00:00.645Z,99992.83
2019-01-08T02:02:28.620Z,99984.22
2019-01-08T02:04:56.629Z,99977.36
2019-01-08T02:07:24.248Z,99969.53
2019-01-08T02:09:52.216Z,99981.69
2019-01-08T02:12:20.217Z,99972.55
2019-01-08T02:14:48.157Z,99960.09
2019-01-08T02:17:16.126Z,99952.55
2019-01-08T02:19:44.114Z,99947.73
2019-01-08T02:22:11.742Z,99942.00
2019-01-08T02:24:39.625Z,99931.80
2019-01-08T02:27:07.263Z,99927.74
2019-01-08T02:29:34.881Z,99923.33
2019-01-08T02:32:02.513Z,99917.33
2019-01-08T02:34:30.478Z,99922.45
2019-01-08T02:36:58.449Z,99908.93
2019-01-08T02:39:26.426Z,99901.56
2019-01-08T02:41:54.079Z,99892.55
2019-01-08T02:44:21.946Z,99890.53
2019-01-08T02:46:49.580Z,99887.88
2019-01-08T02:49:17.202Z,99881.16
2019-01-08T02:51:45.158Z,99873.31
2019-01-08T02:54:13.120Z,99863.94
2019-01-08T02:56:41.084Z,99865.45
2019-01-08T02:59:09.053Z,99850.66
2019-01-08T03:01:36.674Z,99848.31
2019-01-08T03:04:04.303Z,99843.20
2019-01-08T03:06:32.242Z,99826.95
2019-01-08T03:08:59.957Z,99822.77
2019-01-08T03:11:27.873Z,99809.91
2019-01-08T03:13:55.841Z,99798.31
2019-01-08T03:16:23.819Z,99789.96
2019-01-08T03:18:52.412Z,99786.47
2019-01-08T03:21:20.033Z,99787.70
2019-01-08T03:23:47.666Z,99779.23
2019-01-08T03:26:15.287Z,99775.00
2019-01-08T03:28:42.916Z,99768.68
2019-01-08T03:31:10.817Z,99772.17
2019-01-08T03:33:38.781Z,99767.59
2019-01-08T03:36:06.768Z,99749.24
2019-01-08T03:38:34.400Z,99752.16
2019-01-08T03:41:02.278Z,99746.28
2019-01-08T03:43:29.901Z,99738.33
2019-01-08T03:45:57.531Z,99732.09
2019-01-08T03:48:25.470Z,99735.85
2019-01-08T03:50:53.445Z,99731.61
2019-01-08T03:53:21.068Z,99715.16
2019-01-08T03:55:48.693Z,99709.11
2019-01-08T03:58:16.636Z,99699.55
2019-01-08T04:00:44.603Z,99699.55
2019-01-08T04:03:12.251Z,99695.10
2019-01-08T04:05:40.135Z,99698.46
2019-01-08T04:08:08.412Z,99703.91
2019-01-08T04:10:36.054Z,99689.16
2019-01-08T04:13:03.948Z,99693.75
2019-01-08T04:15:31.907Z,99688.36
2019-01-08T04:17:59.535Z,99682.56
2019-01-08T04:20:27.154Z,99695.17
2019-01-08T04:22:55.102Z,99688.20
2019-01-08T04:25:23.073Z,99679.92
2019-01-08T04:27:51.043Z,99672.39
2019-01-08T04:30:19.010Z,99669.96
2019-01-08T04:32:46.636Z,99664.03
2019-01-08T04:35:14.536Z,99650.95
2019-01-08T04:37:42.159Z,99646.98
2019-01-08T04:40:09.794Z,99652.83
2019-01-08T04:42:37.409Z,99648.06
2019-01-08T04:45:05.058Z,99643.67
2019-01-08T04:47:32.952Z,99635.51
2019-01-08T04:50:00.905Z,99639.06
2019-01-08T04:52:30.556Z,99629.30
2019-01-08T04:54:58.402Z,99630.18
2019-01-08T04:57:26.376Z,99618.77
2019-01-08T04:59:58.891Z,99621.61
2019-01-08T05:02:23.668Z,99608.20
2019-01-08T05:04:51.617Z,99608.20
2019-01-08T05:07:19.581Z,99611.36
2019-01-08T05:09:47.215Z,99586.07
2019-01-08T05:12:14.840Z,99595.42
2019-01-08T05:14:42.771Z,99587.64
2019-01-08T05:17:10.744Z,99589.48
2019-01-08T05:19:38.711Z,99577.84
2019-01-08T05:22:06.678Z,99565.34
2019-01-08T05:24:34.649Z,99565.34
2019-01-08T05:27:02.626Z,99559.03
2019-01-08T05:29:30.585Z,99562.88
2019-01-08T05:31:58.559Z,99566.03
2019-01-08T05:34:26.442Z,99570.47
2019-01-08T05:36:54.394Z,99550.30
2019-01-08T05:39:22.366Z,99552.86
2019-01-08T05:41:50.337Z,99543.70
2019-01-08T05:44:18.319Z,99540.55
2019-01-08T05:46:46.272Z,99539.06
2019-01-08T05:49:13.900Z,99532.58
2019-01-08T05:51:41.800Z,99524.09
2019-01-08T05:54:09.424Z,99523.11
2019-01-08T05:56:37.329Z,99516.98
2019-01-08T05:59:05.201Z,99504.36
2019-01-08T06:01:33.896Z,99507.52
2019-01-08T06:04:01.630Z,99504.66
2019-01-08T06:06:29.520Z,99514.03
2019-01-08T06:08:57.487Z,99504.55
2019-01-08T06:11:25.762Z,99501.44
2019-01-08T06:13:53.736Z,99499.45
2019-01-08T06:16:22.012Z,99498.44
2019-01-08T06:18:49.979Z,99497.66
2019-01-08T06:21:17.951Z,99488.30
2019-01-08T06:23:45.662Z,99486.25
2019-01-08T06:26:13.700Z,99475.70
2019-01-08T06:28:41.676Z,99467.66
2019-01-08T06:31:09.631Z,99462.27
2019-01-08T06:33:37.265Z,99456.27
2019-01-08T06:36:04.932Z,99455.09
2019-01-08T06:38:32.917Z,99450.45
2019-01-08T06:41:00.912Z,99439.25
2019-01-08T06:43:28.522Z,99435.25
2019-01-08T06:45:56.423Z,99422.14
2019-01-08T06:48:24.043Z,99422.72
2019-01-08T06:50:56.295Z,99434.38
2019-01-08T06:53:21.558Z,99426.14
2019-01-08T06:55:49.492Z,99426.69
2019-01-08T06:58:17.394Z,99416.38
2019-01-08T07:00:45.361Z,99406.52
2019-01-08T07:05:53.402Z,99420.28
2019-01-08T07:08:21.148Z,99425.97
2019-01-08T07:10:49.126Z,99420.52
2019-01-08T07:13:17.093Z,99417.30
2019-01-08T07:15:45.060Z,99410.83
2019-01-08T07:18:12.676Z,99407.70
2019-01-08T07:20:40.592Z,99403.09
2019-01-08T07:23:08.575Z,99401.30
2019-01-08T07:25:42.157Z,99397.09
2019-01-08T07:28:05.832Z,99395.94
2019-01-08T07:30:41.263Z,99390.59
2019-01-08T07:33:03.105Z,99380.93
2019-01-08T07:35:31.073Z,99378.25
2019-01-08T07:37:59.043Z,99371.70
2019-01-08T07:40:27.006Z,99374.33
2019-01-08T07:42:54.975Z,99359.13
2019-01-08T07:45:22.967Z,99358.13
2019-01-08T07:47:50.913Z,99355.16
2019-01-08T07:50:18.537Z,99344.30
2019-01-08T07:52:46.163Z,99343.12
2019-01-08T07:55:13.777Z,99351.84
2019-01-08T07:57:41.696Z,99345.23
2019-01-08T08:00:09.318Z,99332.48
2019-01-08T08:02:37.197Z,99319.91
2019-01-08T08:05:04.824Z,99326.88
2019-01-08T08:07:32.431Z,99313.59
2019-01-08T08:10:00.091Z,99308.03
2019-01-08T08:12:27.730Z,99321.34
2019-01-08T08:14:55.348Z,99317.34
2019-01-08T08:17:22.977Z,99319.56
2019-01-08T08:19:50.614Z,99305.19
2019-01-08T08:22:18.222Z,99309.41
2019-01-08T08:24:45.843Z,99288.37
2019-01-08T08:27:13.824Z,99288.37
2019-01-08T08:29:41.692Z,99287.46
2019-01-08T08:32:09.666Z,99285.23
2019-01-08T08:34:37.627Z,99285.39
2019-01-08T08:37:05.598Z,99276.80
2019-01-08T08:39:33.465Z,99282.20
2019-01-08T08:42:01.095Z,99272.26
2019-01-08T08:44:28.745Z,99258.69
2019-01-08T08:46:56.661Z,99249.23
2019-01-08T08:49:24.640Z,99266.66
2019-01-08T08:51:52.599Z,99249.95
2019-01-08T08:54:20.578Z,99255.25
2019-01-08T08:56:48.534Z,99255.16
2019-01-08T08:59:16.401Z,99251.91
2019-01-08T09:01:44.027Z,99243.15
2019-01-08T09:04:11.933Z,99245.40
2019-01-08T09:06:39.554Z,99250.84
2019-01-08T09:09:07.170Z,99250.84
2019-01-08T09:11:35.125Z,99244.84
2019-01-08T09:14:02.737Z,99241.87
2019-01-08T09:16:30.655Z,99243.15
2019-01-08T09:18:58.521Z,99224.27
2019-01-08T09:21:26.490Z,99241.89
2019-01-08T09:23:56.066Z,99229.60
2019-01-08T09:26:23.767Z,99232.52
2019-01-08T09:28:51.737Z,99223.04
2019-01-08T09:31:19.359Z,99234.92
2019-01-08T09:33:47.261Z,99212.41
2019-01-08T09:36:14.884Z,99212.41
2019-01-08T09:38:42.803Z,99206.44
2019-01-08T09:41:10.758Z,99191.50
2019-01-08T09:43:38.388Z,99191.50
2019-01-08T09:46:05.997Z,99202.06
2019-01-08T09:48:33.950Z,99198.35
2019-01-08T09:51:01.923Z,99203.66
2019-01-08T09:53:29.809Z,99186.91
2019-01-08T09:55:57.779Z,99192.53
2019-01-08T09:58:25.724Z,99194.03
2019-01-08T10:00:53.696Z,99184.01
2019-01-08T10:03:21.668Z,99177.44
2019-01-08T10:05:49.295Z,99175.36
2019-01-08T10:08:17.206Z,99161.84
2019-01-08T10:10:44.824Z,99168.52
2019-01-08T10:13:12.731Z,99143.05
2019-01-08T10:15:40.591Z,99145.79
2019-01-08T10:18:08.574Z,99130.05
2019-01-08T10:20:36.184Z,99130.05
2019-01-08T10:23:10.080Z,99137.22
2019-01-08T10:25:33.119Z,99101.17
2019-01-08T10:28:00.752Z,99101.17
2019-01-08T10:30:28.634Z,99112.76
2019-01-08T10:32:56.581Z,99118.44
2019-01-08T10:35:24.552Z,99102.77
2019-01-08T10:37:52.523Z,99098.17
2019-01-08T10:40:20.138Z,99101.77
2019-01-08T10:42:47.775Z,99083.41
2019-01-08T10:45:15.721Z,99093.63
2019-01-08T10:47:43.348Z,99074.78
2019-01-08T10:50:10.959Z,99078.39
2019-01-08T10:52:38.904Z,99055.28
2019-01-08T10:55:06.781Z,99053.46
2019-01-08T10:57:34.752Z,99050.20
2019-01-08T11:00:02.375Z,99042.92
2019-01-08T11:02:29.995Z,99016.20
2019-01-08T11:04:57.940Z,99016.20
2019-01-08T11:07:25.909Z,99025.53
2019-01-08T11:09:53.887Z,99019.51
2019-01-08T11:12:21.848Z,99012.82
2019-01-08T11:14:49.710Z,99005.76
2019-01-08T11:17:17.329Z,99013.45
2019-01-08T11:19:45.253Z,98992.86
2019-01-08T11:22:12.888Z,98982.47
2019-01-08T11:24:40.506Z,98975.30
2019-01-08T11:27:08.149Z,98968.15
2019-01-08T11:29:36.102Z,98956.97
2019-01-08T11:32:04.065Z,98961.98
2019-01-08T11:34:31.680Z,98945.91
2019-01-08T11:36:59.599Z,98937.00
2019-01-08T11:39:27.573Z,98930.03
2019-01-08T11:41:55.538Z,98922.49
2019-01-08T11:44:24.385Z,98912.02
2019-01-08T11:46:52.394Z,98919.89
2019-01-08T11:49:20.267Z,98913.07
2019-01-08T11:51:47.885Z,98887.41
2019-01-08T11:54:15.497Z,98888.63
2019-01-08T11:56:43.457Z,98881.16
2019-01-08T11:59:11.064Z,98895.47
2019-01-08T12:01:38.993Z,98884.34
2019-01-08T12:04:06.964Z,98877.25
2019-01-08T12:06:34.927Z,98860.95
2019-01-08T12:09:03.934Z,98852.86
2019-01-08T12:11:31.905Z,98832.70
2019-01-08T12:13:59.862Z,98854.48
2019-01-08T12:16:27.485Z,98837.77
2019-01-08T12:18:55.115Z,98842.82
2019-01-08T12:21:23.051Z,98815.84
2019-01-08T12:23:51.022Z,98814.97
2019-01-08T12:26:19.000Z,98816.52
2019-01-08T12:28:46.956Z,98815.16
2019-01-08T12:31:14.825Z,98813.89
2019-01-08T12:33:42.801Z,98805.80
2019-01-08T12:36:10.417Z,98809.64
2019-01-08T12:38:38.333Z,98804.59
2019-01-08T12:41:05.951Z,98810.59
2019-01-08T12:43:33.858Z,98797.16
2019-01-08T12:46:01.824Z,98801.46
2019-01-08T12:48:29.454Z,98803.62
2019-01-08T12:50:57.354Z,98808.28
2019-01-08T12:53:25.324Z,98804.77
2019-01-08T12:55:53.202Z,98811.46
2019-01-08T12:58:21.174Z,98800.75
2019-01-08T13:00:49.236Z,98801.48
2019-01-08T13:03:17.208Z,98809.84
2019-01-08T13:05:45.068Z,98807.43
2019-01-08T13:08:12.706Z,98808.50
2019-01-08T13:10:40.600Z,98813.33
2019-01-08T13:13:08.570Z,98801.53
2019-01-08T13:15:36.547Z,98801.25
2019-01-08T13:18:04.175Z,98797.02
2019-01-08T13:20:31.800Z,98790.45
2019-01-08T13:22:59.731Z,98796.56
2019-01-08T13:25:27.706Z,98798.86
2019-01-08T13:27:55.669Z,98794.64
2019-01-08T13:30:23.343Z,98793.28
2019-01-08T13:32:50.965Z,98798.45
2019-01-08T13:35:18.866Z,98791.06
2019-01-08T13:37:46.831Z,98801.69
2019-01-08T13:40:14.457Z,98792.18
2019-01-08T13:42:42.364Z,98797.03
2019-01-08T13:45:10.333Z,98789.70
2019-01-08T13:47:38.302Z,98786.67
2019-01-08T13:50:05.945Z,98776.83
2019-01-08T13:52:33.836Z,98782.84
2019-01-08T13:55:01.722Z,98778.27
2019-01-08T13:57:29.769Z,98774.75
2019-01-08T13:59:57.739Z,98777.38
2019-01-08T14:02:31.863Z,98771.05
2019-01-08T14:04:55.421Z,98770.23
2019-01-08T14:07:23.391Z,98760.63
2019-01-08T14:09:51.359Z,98765.01
2019-01-08T14:12:19.333Z,98755.31
2019-01-08T14:14:47.301Z,98759.77
2019-01-08T14:17:15.265Z,98760.77
2019-01-08T14:19:43.236Z,98757.68
2019-01-08T14:22:10.860Z,98755.04
2019-01-08T14:24:38.490Z,98746.88
2019-01-08T14:27:11.708Z,98754.47
2019-01-08T14:29:35.534Z,98745.22
2019-01-08T14:32:03.177Z,98756.84
2019-01-08T14:34:30.806Z,98754.65
2019-01-08T14:36:58.420Z,98753.22
2019-01-08T14:39:26.040Z,98750.58
2019-01-08T14:41:53.942Z,98742.09
2019-01-08T14:44:21.577Z,98738.55
2019-01-08T14:46:49.202Z,98751.42
2019-01-08T14:49:16.882Z,98748.92
2019-01-08T14:51:44.538Z,98746.75
2019-01-08T14:54:12.170Z,98744.12
2019-01-08T14:56:39.817Z,98747.75
2019-01-08T14:59:07.782Z,98751.59
2019-01-08T15:01:35.420Z,98748.27
2019-01-08T15:04:03.414Z,98744.88
2019-01-08T15:06:31.395Z,98754.97
2019-01-08T15:08:59.023Z,98746.22
2019-01-08T15:11:26.922Z,98752.99
2019-01-08T15:13:54.905Z,98752.99
2019-01-08T15:16:22.855Z,98758.34
2019-01-08T15:18:50.826Z,98759.44
2019-01-08T15:21:18.456Z,98759.84
2019-01-08T15:23:46.349Z,98752.84
2019-01-08T15:26:13.972Z,98756.00
2019-01-08T15:28:41.596Z,98765.33
2019-01-08T15:31:09.549Z,98753.94
2019-01-08T15:33:37.512Z,98753.83
2019-01-08T15:36:05.132Z,98763.11
2019-01-08T15:38:33.146Z,98767.37
2019-01-08T15:41:01.116Z,98770.67
2019-01-08T15:43:29.089Z,98762.58
2019-01-08T15:45:56.953Z,98759.37
2019-01-08T15:48:24.921Z,98758.61
2019-01-08T15:50:52.901Z,98740.90
2019-01-08T15:53:20.784Z,98746.20
2019-01-08T15:55:48.735Z,98745.25
2019-01-08T15:58:16.354Z,98740.17
2019-01-08T16:00:43.984Z,98742.27
2019-01-08T16:03:11.614Z,98744.42
2019-01-08T16:05:39.326Z,98740.02
2019-01-08T16:08:07.046Z,98745.27
2019-01-08T16:10:34.681Z,98741.38
2019-01-08T16:13:02.295Z,98752.09
2019-01-08T16:15:29.946Z,98746.59
2019-01-08T16:17:57.895Z,98749.98
2019-01-08T16:20:25.922Z,98758.37
2019-01-08T16:22:53.570Z,98752.02
2019-01-08T16:25:21.493Z,98759.58
2019-01-08T16:27:49.114Z,98762.20
2019-01-08T16:30:17.032Z,98768.38
2019-01-08T16:32:44.653Z,98761.77
2019-01-08T16:35:12.375Z,98761.00
2019-01-08T16:37:40.320Z,98751.70
2019-01-08T16:40:07.957Z,98740.65
2019-01-08T16:42:35.855Z,98755.80
2019-01-08T16:45:03.821Z,98750.87
2019-01-08T16:47:31.446Z,98749.45
2019-01-08T16:49:59.348Z,98751.97
2019-01-08T16:52:26.966Z,98743.64
2019-01-08T16:54:54.877Z,98748.98
2019-01-08T16:57:22.496Z,98754.67
2019-01-08T16:59:50.411Z,98751.27
2019-01-08T17:02:18.027Z,98757.91
2019-01-08T17:04:45.938Z,98750.95
2019-01-08T17:07:13.562Z,98750.95
2019-01-08T17:09:41.201Z,98755.93
2019-01-08T17:12:09.130Z,98752.23
2019-01-08T17:14:37.098Z,98748.74
2019-01-08T17:17:05.273Z,98749.42
2019-01-08T17:19:33.251Z,98756.83
2019-01-08T17:22:00.855Z,98744.83
2019-01-08T17:24:28.775Z,98750.75
2019-01-08T17:26:56.751Z,98747.68
2019-01-08T17:29:24.723Z,98740.17
2019-01-08T17:31:52.682Z,98745.22
2019-01-08T17:34:20.301Z,98742.98
2019-01-08T17:36:47.916Z,98737.61
2019-01-08T17:39:15.878Z,98737.61
2019-01-08T17:41:43.845Z,98731.34
2019-01-08T17:44:11.464Z,98733.34
2019-01-08T17:46:39.374Z,98736.14
2019-01-08T17:49:07.247Z,98718.67
2019-01-08T17:51:35.232Z,98718.67
2019-01-08T17:54:02.841Z,98733.02
2019-01-08T17:56:30.746Z,98729.09
2019-01-08T17:58:58.367Z,98722.64
2019-01-08T18:01:26.270Z,98730.38
2019-01-08T18:03:53.887Z,98736.27
2019-01-08T18:06:21.809Z,98734.33
2019-01-08T18:08:49.442Z,98733.86
2019-01-08T18:11:17.332Z,98741.16
2019-01-08T18:13:44.964Z,98736.18
2019-01-08T18:16:12.860Z,98742.02
2019-01-08T18:18:40.847Z,98746.84
2019-01-08T18:21:08.800Z,98741.27
2019-01-08T18:23:36.425Z,98735.02
2019-01-08T18:26:04.330Z,98731.89
2019-01-08T18:28:31.958Z,98728.01
2019-01-08T18:30:59.857Z,98736.97
2019-01-08T18:33:27.830Z,98724.96
2019-01-08T18:35:55.801Z,98736.15
2019-01-08T18:38:23.775Z,98732.88
2019-01-08T18:40:51.408Z,98724.72
2019-01-08T18:43:19.022Z,98729.41
2019-01-08T18:45:46.957Z,98735.61
2019-01-08T18:48:14.929Z,98739.61
2019-01-08T18:50:42.560Z,98738.59
2019-01-08T18:53:10.181Z,98736.42
2019-01-08T18:55:37.829Z,98739.79
2019-01-08T18:58:05.459Z,98742.34
2019-01-08T19:00:33.340Z,98732.50
2019-01-08T19:03:01.322Z,98746.44
2019-01-08T19:05:29.282Z,98745.54
2019-01-08T19:07:56.901Z,98745.22
2019-01-08T19:10:24.536Z,98746.91
2019-01-08T19:12:52.488Z,98745.80
2019-01-08T19:15:20.119Z,98742.86
2019-01-08T19:17:47.743Z,98744.44
2019-01-08T19:20:15.670Z,98733.77
2019-01-08T19:22:43.285Z,98736.19
2019-01-08T19:25:10.914Z,98740.17
2019-01-08T19:27:38.539Z,98737.61
2019-01-08T19:30:06.161Z,98741.16
2019-01-08T19:32:34.086Z,98731.86
2019-01-08T19:35:02.065Z,98729.84
2019-01-08T19:37:30.020Z,98735.45
2019-01-08T19:39:57.991Z,98734.70
2019-01-08T19:42:25.616Z,98736.09
2019-01-08T19:44:53.238Z,98741.44
2019-01-08T19:47:20.864Z,98735.45
2019-01-08T19:49:48.481Z,98728.73
2019-01-08T19:52:16.404Z,98724.31
2019-01-08T19:54:44.099Z,98730.72
2019-01-08T19:57:12.048Z,98738.74
2019-01-08T19:59:39.730Z,98737.05
2019-01-08T20:02:07.668Z,98749.70
2019-01-08T20:04:35.285Z,98757.72
2019-01-08T20:07:02.914Z,98763.62
2019-01-08T20:09:30.610Z,98781.45
2019-01-08T20:11:58.521Z,98780.88
2019-01-08T20:14:26.499Z,98780.94
2019-01-08T20:16:54.466Z,98785.17
2019-01-08T20:19:22.079Z,98792.48
2019-01-08T20:21:49.989Z,98792.12
2019-01-08T20:24:17.968Z,98790.72
2019-01-08T20:26:45.599Z,98803.36
2019-01-08T20:29:13.499Z,98798.61
2019-01-08T20:31:41.464Z,98807.15
2019-01-08T20:34:09.081Z,98799.41
2019-01-08T20:36:37.008Z,98797.30
2019-01-08T20:39:05.061Z,98796.31
2019-01-08T20:41:33.034Z,98795.81
2019-01-08T20:44:00.650Z,98804.39
2019-01-08T20:46:28.561Z,98807.99
2019-01-08T20:48:56.184Z,98800.80
2019-01-08T20:51:24.096Z,98799.01
2019-01-08T20:53:52.062Z,98793.20
2019-01-08T20:56:20.050Z,98787.41
2019-01-08T20:58:48.001Z,98802.19
2019-01-08T21:01:15.621Z,98793.72
2019-01-08T21:03:43.567Z,98795.17
2019-01-08T21:06:11.496Z,98792.14
2019-01-08T21:08:39.365Z,98791.18
2019-01-08T21:11:07.320Z,98793.42
2019-01-08T21:13:35.306Z,98792.72
2019-01-08T21:16:03.271Z,98788.84
2019-01-08T21:18:31.248Z,98792.36
2019-01-08T21:20:59.220Z,98794.05
2019-01-08T21:23:26.842Z,98792.43
2019-01-08T21:25:54.463Z,98791.63
2019-01-08T21:28:22.088Z,98795.19
2019-01-08T21:30:49.964Z,98800.19
2019-01-08T21:33:17.938Z,98791.39
2019-01-08T21:35:45.906Z,98792.43
2019-01-08T21:38:13.533Z,98786.86
2019-01-08T21:40:41.437Z,98791.96
2019-01-08T21:43:09.066Z,98786.98
2019-01-08T21:45:36.677Z,98788.09
2019-01-08T21:48:04.630Z,98787.52
2019-01-08T21:50:32.602Z,98790.08
2019-01-08T21:53:00.574Z,98786.36
2019-01-08T21:55:28.535Z,98783.82
2019-01-08T21:57:56.161Z,98786.59
2019-01-08T22:00:23.780Z,98788.63
2019-01-08T22:02:51.411Z,98788.75
2019-01-08T22:05:19.028Z,98787.93
2019-01-08T22:07:46.950Z,98785.85
2019-01-08T22:10:14.643Z,98774.83
2019-01-08T22:12:42.264Z,98784.09
2019-01-08T22:15:10.150Z,98791.41
2019-01-08T22:17:38.115Z,98786.20
2019-01-08T22:20:06.083Z,98786.00
2019-01-08T22:22:34.054Z,98782.70
2019-01-08T22:25:01.679Z,98780.52
2019-01-08T22:27:29.293Z,98779.10
2019-01-08T22:29:57.241Z,98790.53
2019-01-08T22:32:24.883Z,98778.84
2019-01-08T22:35:01.840Z,98785.00
2019-01-08T22:37:22.094Z,98787.55
2019-01-08T22:39:50.065Z,98784.30
2019-01-08T22:42:18.013Z,98788.97
2019-01-08T22:44:45.881Z,98787.55
2019-01-08T22:47:13.505Z,98793.30
2019-01-08T22:49:41.122Z,98808.50
2019-01-08T22:52:08.759Z,98816.01
2019-01-08T22:54:36.633Z,98808.92
2019-01-08T22:57:04.610Z,98809.25
2019-01-08T22:59:32.579Z,98809.20
2019-01-08T23:02:00.545Z,98808.73
2019-01-08T23:04:28.161Z,98799.09
2019-01-08T23:06:55.784Z,98801.31
2019-01-08T23:09:23.408Z,98805.33
2019-01-08T23:11:51.197Z,98809.14
2019-01-08T23:14:18.822Z,98813.55
2019-01-08T23:16:46.722Z,98798.64
2019-01-08T23:19:14.689Z,98807.07
2019-01-08T23:21:42.661Z,98803.65
2019-01-08T23:24:10.649Z,98808.82
2019-01-08T23:26:38.600Z,98801.70
2019-01-08T23:29:06.567Z,98800.11
2019-01-08T23:31:34.544Z,98802.05
2019-01-08T23:34:02.171Z,98799.63
2019-01-08T23:36:29.784Z,98794.59
2019-01-08T23:38:57.730Z,98795.42
2019-01-08T23:41:25.705Z,98796.42
2019-01-08T23:43:53.332Z,98798.61
2019-01-08T23:46:21.229Z,98788.84
2019-01-08T23:48:49.199Z,98796.75
2019-01-08T23:51:17.169Z,98792.50
2019-01-08T23:53:44.799Z,98790.23
2019-01-08T23:56:12.716Z,98785.65
2019-01-08T23:58:40.674Z,98786.52
